Airfield :
LOGIN :

Register | Disclaimer

   EN    FR    IT 

 










Legend :    VFR   Marginal VFR   IFR   Intensive IFR   Very Intensive IFR
Visi :
Ceiling :
>= 8 km
>= 3000ft
5 to 8 km
1000 to 3000 ft
1500m to 5 km
500 to 1000 ft
800 to 1500m
200 to 500 ft
< 800m
< 200 ft
Symbols :   Thunderstorms  Fog  Heavy snow  Heavy precipitations  Wind > 20 kt
SIGMETs :     Misc.  Thunderstorms  Icing  Turbulence  Mountain Waves  Volcanic Ashes







- Airport Elevation : 144 ft
- IATA code : PGF
- Download approach charts


LFMP - Perpignan

CURRENT METAR :
  • 170830Z AUTO 14008KT 110V170 9999 FEW043 BKN060 15/09 Q1018 TEMPO RA

EXPIRED METARs :
  • 170800Z AUTO 15009KT 110V170 9999 BKN043 BKN049 OVC058 15/10 Q1019 TEMPO RA
  • 170730Z AUTO 15006KT 110V180 9999 BKN045 BKN056 BKN068 15/10 Q1019 TEMPO RA
  • 170700Z AUTO 14006KT 110V170 9999 FEW046 BKN054 BKN076 15/10 Q1018 NOSIG
  • 170630Z AUTO 14004KT 9999 FEW028 OVC054 15/10 Q1018 NOSIG
  • 170600Z AUTO 15005KT 9999 FEW029 OVC060 15/10 Q1018 NOSIG

TAF TAF LFMP
Valid from the 17 at 09:00 until the 18 at 09:00 UTC


170800Z 1709/1809 14005KT 9999 SCT030 BKN043
BECMG 1714/1716 BKN030TCU
TEMPO 1717/1722 SHRA BKN030CB
BECMG 1722/1724 11015KT
PROB30
TEMPO 1723/1809 VRB10G30KT 4000 TSRA BKN012 BKN025CB OVC050
ATIS : +33 4 68 63 75 12
No reported NOTAMs for that airfield.



MET'MAP, your aeronautical weather chart ! - Copyright ORBIFLY December 2007 - Disclaimer

ORBIFLY MET'MAP TEAM :

Programming & Development : Alexandra Zaïnal
Concept & Development : Baudouin d'Aumeries
Co-Development & Prog : Marc-Olivier Méhu
Technical & hardware support : Manuel Goepfert

Contact : metmap@orbifly.com




SOURCES & CREDITS :

   NOAA